ANA661 RJTT-RJFU
Flight info
| Callsign | ANA661 |
|---|---|
| Flight time | 1h 38m |
| Altitude | 40000 |
| Route | TIARA GUSRO Y20 KAMMY Y204 OHGIE |
| Aircraft | B772/H-SDFLOVE1E2E3GHIJ3J5J6M1M2RWXYP1P2/LB1D1 |
Departure
| Time | 2026-04-30 08:33 |
|---|---|
| Airport | Tokyo Haneda International Airport (RJTT) |
Arrival
| Time | 2026-04-30 10:11 |
|---|---|
| Airport | Nagasaki Airport (RJFU) |
| Time | Latitude | Longitude | Altitude | Speed | Heading |
|---|---|---|---|---|---|
| 2026-04-30 07:53 | 35.55214 | 139.78917 | 32 ft | 0 kts | 240° |
| 2026-04-30 07:59 | 35.55215 | 139.78917 | 32 ft | 0 kts | 240° |
| 2026-04-30 08:17 | 35.55215 | 139.78918 | 32 ft | 0 kts | 240° |
| 2026-04-30 08:20 | 35.55222 | 139.78932 | 31 ft | 4 kts | 240° |
| 2026-04-30 08:20 | 35.55234 | 139.78958 | 29 ft | 2 kts | 240° |
| 2026-04-30 08:20 | 35.55243 | 139.78983 | 30 ft | 4 kts | 269° |
| 2026-04-30 08:21 | 35.55238 | 139.79004 | 30 ft | 4 kts | 316° |
| 2026-04-30 08:21 | 35.55218 | 139.79022 | 29 ft | 4 kts | 330° |
| 2026-04-30 08:21 | 35.55197 | 139.79037 | 31 ft | 1 kts | 330° |
| 2026-04-30 08:21 | 35.55196 | 139.79038 | 31 ft | 2 kts | 330° |
| 2026-04-30 08:25 | 35.55197 | 139.79038 | 32 ft | 1 kts | 330° |
| 2026-04-30 08:26 | 35.55232 | 139.79013 | 32 ft | 7 kts | 330° |
| 2026-04-30 08:26 | 35.55276 | 139.78982 | 32 ft | 8 kts | 330° |
| 2026-04-30 08:26 | 35.55326 | 139.78946 | 32 ft | 9 kts | 330° |
| 2026-04-30 08:26 | 35.55386 | 139.78940 | 32 ft | 9 kts | 24° |
| 2026-04-30 08:27 | 35.55431 | 139.79003 | 31 ft | 10 kts | 62° |
| 2026-04-30 08:27 | 35.55470 | 139.79085 | 30 ft | 11 kts | 60° |
| 2026-04-30 08:27 | 35.55483 | 139.79165 | 30 ft | 8 kts | 109° |
| 2026-04-30 08:27 | 35.55440 | 139.79214 | 30 ft | 9 kts | 147° |
| 2026-04-30 08:28 | 35.55388 | 139.79253 | 29 ft | 9 kts | 150° |
| 2026-04-30 08:28 | 35.55320 | 139.79301 | 32 ft | 12 kts | 150° |
| 2026-04-30 08:28 | 35.55245 | 139.79355 | 31 ft | 13 kts | 149° |
| 2026-04-30 08:28 | 35.55167 | 139.79410 | 31 ft | 13 kts | 150° |
| 2026-04-30 08:29 | 35.55090 | 139.79465 | 32 ft | 13 kts | 149° |
| 2026-04-30 08:29 | 35.55012 | 139.79521 | 31 ft | 13 kts | 150° |
| 2026-04-30 08:29 | 35.54926 | 139.79582 | 30 ft | 15 kts | 149° |
| 2026-04-30 08:29 | 35.54836 | 139.79644 | 30 ft | 15 kts | 150° |
| 2026-04-30 08:30 | 35.54743 | 139.79710 | 29 ft | 16 kts | 149° |
| 2026-04-30 08:30 | 35.54645 | 139.79781 | 29 ft | 16 kts | 150° |
| 2026-04-30 08:30 | 35.54545 | 139.79852 | 28 ft | 17 kts | 150° |
| 2026-04-30 08:30 | 35.54438 | 139.79927 | 26 ft | 18 kts | 149° |
| 2026-04-30 08:31 | 35.54330 | 139.80006 | 30 ft | 18 kts | 149° |
| 2026-04-30 08:31 | 35.54236 | 139.80070 | 31 ft | 8 kts | 150° |
| 2026-04-30 08:31 | 35.54195 | 139.80122 | 30 ft | 9 kts | 109° |
| 2026-04-30 08:31 | 35.54207 | 139.80188 | 28 ft | 7 kts | 63° |
| 2026-04-30 08:32 | 35.54230 | 139.80237 | 30 ft | 7 kts | 57° |
| 2026-04-30 08:32 | 35.54265 | 139.80271 | 31 ft | 7 kts | 23° |
| 2026-04-30 08:32 | 35.54310 | 139.80268 | 32 ft | 7 kts | 339° |
| 2026-04-30 08:32 | 35.54393 | 139.80212 | 31 ft | 26 kts | 330° |
| 2026-04-30 08:33 | 35.54763 | 139.79951 | 33 ft | 103 kts | 330° |
| 2026-04-30 08:33 | 35.55588 | 139.79358 | 229 ft | 156 kts | 329° |
| 2026-04-30 08:33 | 35.56210 | 139.78889 | 798 ft | 157 kts | 329° |
| 2026-04-30 08:33 | 35.57182 | 139.78275 | 1642 ft | 163 kts | 350° |
| 2026-04-30 08:34 | 35.58296 | 139.78450 | 2434 ft | 169 kts | 33° |
| 2026-04-30 08:34 | 35.59328 | 139.80141 | 3095 ft | 210 kts | 63° |
| 2026-04-30 08:34 | 35.59837 | 139.81210 | 3412 ft | 224 kts | 62° |
| 2026-04-30 08:34 | 35.60654 | 139.82896 | 3929 ft | 232 kts | 65° |
| 2026-04-30 08:35 | 35.61031 | 139.84820 | 4461 ft | 232 kts | 92° |
| 2026-04-30 08:35 | 35.60990 | 139.86792 | 5236 ft | 231 kts | 93° |
| 2026-04-30 08:35 | 35.60969 | 139.88787 | 5911 ft | 237 kts | 93° |
| 2026-04-30 08:35 | 35.60947 | 139.90843 | 6517 ft | 244 kts | 94° |
| 2026-04-30 08:36 | 35.60966 | 139.92948 | 7090 ft | 249 kts | 85° |
| 2026-04-30 08:36 | 35.61660 | 139.94929 | 7647 ft | 260 kts | 50° |
| 2026-04-30 08:36 | 35.63158 | 139.96144 | 8331 ft | 262 kts | 14° |
| 2026-04-30 08:36 | 35.64959 | 139.96257 | 8972 ft | 262 kts | 345° |
| 2026-04-30 08:37 | 35.66566 | 139.95283 | 9619 ft | 259 kts | 314° |
| 2026-04-30 08:37 | 35.67556 | 139.93480 | 10255 ft | 256 kts | 285° |
| 2026-04-30 08:37 | 35.67815 | 139.91286 | 10526 ft | 269 kts | 266° |
| 2026-04-30 08:37 | 35.67732 | 139.88917 | 10725 ft | 293 kts | 264° |
| 2026-04-30 08:38 | 35.67596 | 139.86268 | 10934 ft | 320 kts | 264° |
| 2026-04-30 08:38 | 35.67442 | 139.83438 | 11335 ft | 339 kts | 265° |
| 2026-04-30 08:38 | 35.67289 | 139.80519 | 12162 ft | 345 kts | 265° |
| 2026-04-30 08:38 | 35.67142 | 139.77606 | 13214 ft | 347 kts | 266° |
| 2026-04-30 08:39 | 35.66998 | 139.74641 | 14314 ft | 347 kts | 267° |
| 2026-04-30 08:39 | 35.66856 | 139.71668 | 15249 ft | 350 kts | 267° |
| 2026-04-30 08:39 | 35.66714 | 139.68659 | 16079 ft | 355 kts | 267° |
| 2026-04-30 08:39 | 35.66570 | 139.65598 | 16901 ft | 360 kts | 266° |
| 2026-04-30 08:40 | 35.66424 | 139.62505 | 17748 ft | 364 kts | 266° |
| 2026-04-30 08:40 | 35.66276 | 139.59378 | 18557 ft | 368 kts | 266° |
| 2026-04-30 08:40 | 35.66126 | 139.56221 | 19300 ft | 370 kts | 266° |
| 2026-04-30 08:40 | 35.65975 | 139.53062 | 20184 ft | 369 kts | 266° |
| 2026-04-30 08:41 | 35.65824 | 139.49927 | 21076 ft | 367 kts | 267° |
| 2026-04-30 08:41 | 35.65708 | 139.46800 | 21928 ft | 366 kts | 269° |
| 2026-04-30 08:41 | 35.65744 | 139.43667 | 22702 ft | 367 kts | 271° |
| 2026-04-30 08:41 | 35.65811 | 139.40524 | 23460 ft | 369 kts | 271° |
| 2026-04-30 08:42 | 35.65874 | 139.37362 | 24205 ft | 371 kts | 271° |
| 2026-04-30 08:42 | 35.65930 | 139.34175 | 24790 ft | 374 kts | 270° |
| 2026-04-30 08:42 | 35.65982 | 139.30952 | 25307 ft | 379 kts | 270° |
| 2026-04-30 08:42 | 35.66032 | 139.27686 | 25812 ft | 384 kts | 270° |
| 2026-04-30 08:43 | 35.66082 | 139.24425 | 26326 ft | 388 kts | 269° |
| 2026-04-30 08:43 | 35.66134 | 139.21098 | 26805 ft | 391 kts | 269° |
| 2026-04-30 08:43 | 35.66184 | 139.17739 | 27290 ft | 395 kts | 269° |
| 2026-04-30 08:43 | 35.66229 | 139.14341 | 27734 ft | 399 kts | 268° |
| 2026-04-30 08:44 | 35.66154 | 139.10918 | 28144 ft | 402 kts | 265° |
| 2026-04-30 08:44 | 35.66004 | 139.07474 | 28530 ft | 406 kts | 264° |
| 2026-04-30 08:44 | 35.65840 | 139.03995 | 28942 ft | 409 kts | 264° |
| 2026-04-30 08:44 | 35.65673 | 139.00495 | 29392 ft | 411 kts | 264° |
| 2026-04-30 08:45 | 35.65507 | 138.96964 | 29823 ft | 414 kts | 264° |
| 2026-04-30 08:45 | 35.65342 | 138.93413 | 30216 ft | 418 kts | 263° |
| 2026-04-30 08:45 | 35.65178 | 138.89835 | 30515 ft | 421 kts | 263° |
| 2026-04-30 08:45 | 35.65014 | 138.86233 | 30874 ft | 422 kts | 263° |
| 2026-04-30 08:46 | 35.64851 | 138.82635 | 31260 ft | 421 kts | 263° |
| 2026-04-30 08:46 | 35.64686 | 138.79041 | 31662 ft | 420 kts | 263° |
| 2026-04-30 08:46 | 35.64521 | 138.75459 | 32003 ft | 420 kts | 263° |
| 2026-04-30 08:46 | 35.64355 | 138.71881 | 32365 ft | 418 kts | 263° |
| 2026-04-30 08:47 | 35.64188 | 138.68328 | 32826 ft | 414 kts | 263° |
| 2026-04-30 08:47 | 35.64018 | 138.64809 | 33350 ft | 409 kts | 263° |
| 2026-04-30 08:47 | 35.63842 | 138.61343 | 33886 ft | 404 kts | 263° |
| 2026-04-30 08:47 | 35.63662 | 138.57912 | 34369 ft | 400 kts | 263° |
| 2026-04-30 08:48 | 35.63482 | 138.54518 | 34726 ft | 398 kts | 262° |
| 2026-04-30 08:48 | 35.63301 | 138.51122 | 35020 ft | 397 kts | 262° |
| 2026-04-30 08:48 | 35.63120 | 138.47743 | 35297 ft | 396 kts | 262° |
| 2026-04-30 08:48 | 35.62940 | 138.44363 | 35599 ft | 395 kts | 262° |
| 2026-04-30 08:49 | 35.62760 | 138.41004 | 35876 ft | 394 kts | 262° |
| 2026-04-30 08:49 | 35.62581 | 138.37655 | 36247 ft | 391 kts | 262° |
| 2026-04-30 08:49 | 35.62402 | 138.34327 | 36653 ft | 389 kts | 262° |
| 2026-04-30 08:49 | 35.62226 | 138.31052 | 36901 ft | 389 kts | 262° |
| 2026-04-30 08:50 | 35.62045 | 138.27738 | 37158 ft | 388 kts | 262° |
| 2026-04-30 08:50 | 35.61863 | 138.24430 | 37388 ft | 388 kts | 262° |
| 2026-04-30 08:50 | 35.61681 | 138.21126 | 37615 ft | 388 kts | 262° |
| 2026-04-30 08:50 | 35.61499 | 138.17818 | 37784 ft | 389 kts | 261° |
| 2026-04-30 08:51 | 35.61314 | 138.14499 | 38043 ft | 388 kts | 261° |
| 2026-04-30 08:51 | 35.61128 | 138.11198 | 38287 ft | 386 kts | 261° |
| 2026-04-30 08:51 | 35.60945 | 138.07906 | 38379 ft | 387 kts | 261° |
| 2026-04-30 08:51 | 35.60760 | 138.04613 | 38629 ft | 386 kts | 261° |
| 2026-04-30 08:52 | 35.60575 | 138.01349 | 38915 ft | 382 kts | 261° |
| 2026-04-30 08:52 | 35.60387 | 137.98082 | 39028 ft | 382 kts | 261° |
| 2026-04-30 08:52 | 35.60200 | 137.94825 | 39102 ft | 384 kts | 261° |
| 2026-04-30 08:53 | 35.59823 | 137.88271 | 39280 ft | 385 kts | 261° |
| 2026-04-30 08:53 | 35.59634 | 137.84995 | 39406 ft | 384 kts | 261° |
| 2026-04-30 08:53 | 35.59443 | 137.81732 | 39483 ft | 383 kts | 261° |
| 2026-04-30 08:54 | 35.59020 | 137.75192 | 39634 ft | 384 kts | 260° |
| 2026-04-30 08:54 | 35.58772 | 137.71931 | 39743 ft | 383 kts | 260° |
| 2026-04-30 08:54 | 35.58523 | 137.68669 | 39870 ft | 383 kts | 260° |
| 2026-04-30 08:54 | 35.58277 | 137.65408 | 39984 ft | 384 kts | 260° |
| 2026-04-30 08:55 | 35.58033 | 137.62140 | 40068 ft | 384 kts | 260° |
| 2026-04-30 08:55 | 35.57537 | 137.55602 | 40118 ft | 383 kts | 259° |
| 2026-04-30 08:56 | 35.56560 | 137.49205 | 40122 ft | 379 kts | 253° |
| 2026-04-30 08:56 | 35.55190 | 137.42994 | 40120 ft | 379 kts | 252° |
| 2026-04-30 08:57 | 35.53808 | 137.36742 | 40118 ft | 380 kts | 252° |
| 2026-04-30 08:57 | 35.52430 | 137.30472 | 40115 ft | 381 kts | 252° |
| 2026-04-30 08:58 | 35.51048 | 137.24196 | 40114 ft | 381 kts | 252° |
| 2026-04-30 08:58 | 35.49659 | 137.17919 | 40105 ft | 381 kts | 252° |
| 2026-04-30 08:59 | 35.48269 | 137.11651 | 40108 ft | 381 kts | 252° |
| 2026-04-30 08:59 | 35.46874 | 137.05373 | 40110 ft | 382 kts | 252° |
| 2026-04-30 09:00 | 35.45472 | 136.99083 | 40106 ft | 382 kts | 252° |
| 2026-04-30 09:00 | 35.44067 | 136.92793 | 40101 ft | 382 kts | 252° |
| 2026-04-30 09:01 | 35.42658 | 136.86501 | 40099 ft | 383 kts | 252° |
| 2026-04-30 09:01 | 35.41243 | 136.80201 | 40107 ft | 383 kts | 252° |
| 2026-04-30 09:02 | 35.39115 | 136.70755 | 40104 ft | 383 kts | 252° |
| 2026-04-30 09:02 | 35.37693 | 136.64465 | 40106 ft | 383 kts | 252° |
| 2026-04-30 09:03 | 35.36267 | 136.58170 | 40097 ft | 383 kts | 252° |
| 2026-04-30 09:03 | 35.34841 | 136.51894 | 40090 ft | 382 kts | 252° |
| 2026-04-30 09:04 | 35.33416 | 136.45635 | 40081 ft | 381 kts | 252° |
| 2026-04-30 09:04 | 35.31991 | 136.39400 | 40078 ft | 380 kts | 252° |
| 2026-04-30 09:05 | 35.30572 | 136.33207 | 40081 ft | 380 kts | 252° |
| 2026-04-30 09:05 | 35.29139 | 136.26971 | 40084 ft | 380 kts | 252° |
| 2026-04-30 09:06 | 35.27706 | 136.20741 | 40075 ft | 380 kts | 252° |
| 2026-04-30 09:06 | 35.26271 | 136.14518 | 40069 ft | 379 kts | 252° |
| 2026-04-30 09:07 | 35.24835 | 136.08308 | 40064 ft | 379 kts | 251° |
| 2026-04-30 09:07 | 35.23396 | 136.02100 | 40055 ft | 379 kts | 251° |
| 2026-04-30 09:08 | 35.21954 | 135.95896 | 40054 ft | 379 kts | 251° |
| 2026-04-30 09:08 | 35.20509 | 135.89692 | 40048 ft | 379 kts | 251° |
| 2026-04-30 09:09 | 35.19059 | 135.83487 | 40047 ft | 380 kts | 251° |
| 2026-04-30 09:09 | 35.17746 | 135.77220 | 40049 ft | 382 kts | 255° |
| 2026-04-30 09:10 | 35.16682 | 135.70857 | 40042 ft | 383 kts | 255° |
| 2026-04-30 09:10 | 35.15619 | 135.64472 | 40036 ft | 383 kts | 255° |
| 2026-04-30 09:11 | 35.14552 | 135.58130 | 40033 ft | 384 kts | 255° |
| 2026-04-30 09:11 | 35.13471 | 135.51739 | 40026 ft | 384 kts | 254° |
| 2026-04-30 09:12 | 35.12383 | 135.45342 | 40019 ft | 385 kts | 254° |
| 2026-04-30 09:12 | 35.11294 | 135.38952 | 40022 ft | 384 kts | 254° |
| 2026-04-30 09:13 | 35.10204 | 135.32569 | 40017 ft | 384 kts | 254° |
| 2026-04-30 09:13 | 35.09109 | 135.26186 | 40026 ft | 384 kts | 254° |
| 2026-04-30 09:14 | 35.08006 | 135.19797 | 40022 ft | 384 kts | 254° |
| 2026-04-30 09:14 | 35.06901 | 135.13407 | 40024 ft | 385 kts | 254° |
| 2026-04-30 09:15 | 35.05793 | 135.07010 | 40017 ft | 385 kts | 254° |
| 2026-04-30 09:15 | 35.04679 | 135.00606 | 40021 ft | 386 kts | 254° |
| 2026-04-30 09:16 | 35.03562 | 134.94209 | 40012 ft | 385 kts | 254° |
| 2026-04-30 09:16 | 35.02445 | 134.87829 | 40009 ft | 384 kts | 253° |
| 2026-04-30 09:17 | 35.01327 | 134.81467 | 40019 ft | 383 kts | 253° |
| 2026-04-30 09:17 | 35.00205 | 134.75103 | 40018 ft | 384 kts | 253° |
| 2026-04-30 09:18 | 34.99047 | 134.68741 | 40016 ft | 384 kts | 252° |
| 2026-04-30 09:18 | 34.97490 | 134.62520 | 40018 ft | 383 kts | 249° |
| 2026-04-30 09:19 | 34.95866 | 134.56324 | 40014 ft | 384 kts | 249° |
| 2026-04-30 09:19 | 34.94256 | 134.50160 | 40011 ft | 384 kts | 249° |
| 2026-04-30 09:20 | 34.92646 | 134.43981 | 40014 ft | 382 kts | 249° |
| 2026-04-30 09:20 | 34.91037 | 134.37819 | 40017 ft | 382 kts | 249° |
| 2026-04-30 09:21 | 34.89422 | 134.31645 | 40017 ft | 382 kts | 249° |
| 2026-04-30 09:21 | 34.88067 | 134.26475 | 40013 ft | 382 kts | 249° |
| 2026-04-30 09:22 | 34.86456 | 134.20343 | 40004 ft | 383 kts | 249° |
| 2026-04-30 09:22 | 34.84828 | 134.14161 | 39995 ft | 384 kts | 249° |
| 2026-04-30 09:23 | 34.83201 | 134.07997 | 39979 ft | 384 kts | 249° |
| 2026-04-30 09:23 | 34.81560 | 134.01788 | 39978 ft | 384 kts | 249° |
| 2026-04-30 09:24 | 34.79922 | 133.95607 | 39970 ft | 384 kts | 249° |
| 2026-04-30 09:24 | 34.78280 | 133.89428 | 39957 ft | 384 kts | 249° |
| 2026-04-30 09:25 | 34.76637 | 133.83256 | 39973 ft | 384 kts | 249° |
| 2026-04-30 09:25 | 34.74988 | 133.77080 | 39965 ft | 384 kts | 249° |
| 2026-04-30 09:26 | 34.73336 | 133.70907 | 39975 ft | 384 kts | 249° |
| 2026-04-30 09:26 | 34.71680 | 133.64729 | 39976 ft | 385 kts | 249° |
| 2026-04-30 09:27 | 34.70017 | 133.58544 | 39979 ft | 386 kts | 249° |
| 2026-04-30 09:27 | 34.68349 | 133.52346 | 39969 ft | 386 kts | 249° |
| 2026-04-30 09:28 | 34.66678 | 133.46157 | 39979 ft | 385 kts | 249° |
| 2026-04-30 09:28 | 34.65006 | 133.39978 | 39984 ft | 385 kts | 248° |
| 2026-04-30 09:29 | 34.63348 | 133.33863 | 39977 ft | 385 kts | 248° |
| 2026-04-30 09:29 | 34.61670 | 133.27693 | 39975 ft | 385 kts | 248° |
| 2026-04-30 09:30 | 34.59992 | 133.21529 | 39968 ft | 384 kts | 248° |
| 2026-04-30 09:30 | 34.58309 | 133.15371 | 39961 ft | 385 kts | 248° |
| 2026-04-30 09:31 | 34.56625 | 133.09215 | 39949 ft | 384 kts | 248° |
| 2026-04-30 09:31 | 34.54942 | 133.03077 | 39952 ft | 383 kts | 248° |
| 2026-04-30 09:32 | 34.53259 | 132.96951 | 39944 ft | 383 kts | 248° |
| 2026-04-30 09:32 | 34.51572 | 132.90825 | 39941 ft | 383 kts | 248° |
| 2026-04-30 09:33 | 34.49880 | 132.84695 | 39937 ft | 383 kts | 248° |
| 2026-04-30 09:33 | 34.48187 | 132.78572 | 39932 ft | 383 kts | 248° |
| 2026-04-30 09:34 | 34.46488 | 132.72447 | 39947 ft | 384 kts | 248° |
| 2026-04-30 09:34 | 34.44782 | 132.66315 | 39945 ft | 384 kts | 248° |
| 2026-04-30 09:35 | 34.43072 | 132.60174 | 39958 ft | 385 kts | 248° |
| 2026-04-30 09:35 | 34.41357 | 132.54028 | 39956 ft | 385 kts | 248° |
| 2026-04-30 09:36 | 34.39637 | 132.47879 | 39935 ft | 386 kts | 248° |
| 2026-04-30 09:36 | 34.37912 | 132.41722 | 39935 ft | 386 kts | 248° |
| 2026-04-30 09:37 | 34.36186 | 132.35576 | 39933 ft | 386 kts | 248° |
| 2026-04-30 09:37 | 34.34457 | 132.29433 | 39943 ft | 386 kts | 248° |
| 2026-04-30 09:38 | 34.32735 | 132.23329 | 39927 ft | 384 kts | 248° |
| 2026-04-30 09:38 | 34.31001 | 132.17197 | 39923 ft | 384 kts | 248° |
| 2026-04-30 09:39 | 34.29266 | 132.11077 | 39925 ft | 386 kts | 248° |
| 2026-04-30 09:39 | 34.27524 | 132.04937 | 39926 ft | 387 kts | 248° |
| 2026-04-30 09:40 | 34.25770 | 131.98777 | 39947 ft | 388 kts | 248° |
| 2026-04-30 09:40 | 34.24011 | 131.92604 | 39913 ft | 388 kts | 248° |
| 2026-04-30 09:41 | 34.22247 | 131.86434 | 39936 ft | 388 kts | 248° |
| 2026-04-30 09:41 | 34.20480 | 131.80263 | 39923 ft | 388 kts | 248° |
| 2026-04-30 09:42 | 34.18711 | 131.74096 | 39923 ft | 389 kts | 248° |
| 2026-04-30 09:42 | 34.16951 | 131.67977 | 39912 ft | 389 kts | 248° |
| 2026-04-30 09:43 | 34.15175 | 131.61815 | 39925 ft | 388 kts | 248° |
| 2026-04-30 09:43 | 34.13402 | 131.55677 | 39923 ft | 386 kts | 247° |
| 2026-04-30 09:44 | 34.11648 | 131.49621 | 39892 ft | 379 kts | 247° |
| 2026-04-30 09:44 | 34.09907 | 131.43618 | 39898 ft | 381 kts | 247° |
| 2026-04-30 09:45 | 34.08148 | 131.37564 | 39888 ft | 383 kts | 247° |
| 2026-04-30 09:45 | 34.06352 | 131.31625 | 39688 ft | 369 kts | 244° |
| 2026-04-30 09:46 | 34.05272 | 131.28844 | 39221 ft | 364 kts | 242° |
| 2026-04-30 09:46 | 34.04140 | 131.26127 | 38637 ft | 363 kts | 242° |
| 2026-04-30 09:46 | 34.03007 | 131.23409 | 37881 ft | 363 kts | 242° |
| 2026-04-30 09:46 | 34.01875 | 131.20692 | 37151 ft | 363 kts | 242° |
| 2026-04-30 09:47 | 34.00746 | 131.17976 | 36399 ft | 363 kts | 241° |
| 2026-04-30 09:47 | 33.99612 | 131.15245 | 35630 ft | 365 kts | 241° |
| 2026-04-30 09:47 | 33.98473 | 131.12503 | 34796 ft | 368 kts | 241° |
| 2026-04-30 09:47 | 33.97325 | 131.09735 | 33954 ft | 371 kts | 241° |
| 2026-04-30 09:48 | 33.96167 | 131.06949 | 33159 ft | 371 kts | 241° |
| 2026-04-30 09:48 | 33.95012 | 131.04174 | 32455 ft | 370 kts | 241° |
| 2026-04-30 09:48 | 33.93863 | 131.01413 | 31792 ft | 368 kts | 241° |
| 2026-04-30 09:48 | 33.92716 | 130.98662 | 31158 ft | 367 kts | 241° |
| 2026-04-30 09:49 | 33.91575 | 130.95926 | 30551 ft | 366 kts | 241° |
| 2026-04-30 09:49 | 33.90422 | 130.93165 | 29953 ft | 373 kts | 241° |
| 2026-04-30 09:49 | 33.89231 | 130.90322 | 29182 ft | 386 kts | 241° |
| 2026-04-30 09:49 | 33.88021 | 130.87430 | 28422 ft | 386 kts | 241° |
| 2026-04-30 09:50 | 33.86821 | 130.84559 | 27700 ft | 382 kts | 241° |
| 2026-04-30 09:50 | 33.85645 | 130.81744 | 27008 ft | 378 kts | 241° |
| 2026-04-30 09:50 | 33.84468 | 130.78933 | 26317 ft | 374 kts | 241° |
| 2026-04-30 09:50 | 33.83299 | 130.76143 | 25664 ft | 371 kts | 241° |
| 2026-04-30 09:51 | 33.82140 | 130.73380 | 24995 ft | 369 kts | 241° |
| 2026-04-30 09:51 | 33.80984 | 130.70628 | 24334 ft | 368 kts | 241° |
| 2026-04-30 09:51 | 33.79834 | 130.67892 | 23661 ft | 366 kts | 241° |
| 2026-04-30 09:51 | 33.78687 | 130.65165 | 22934 ft | 365 kts | 241° |
| 2026-04-30 09:52 | 33.77547 | 130.62457 | 22253 ft | 362 kts | 241° |
| 2026-04-30 09:52 | 33.76414 | 130.59768 | 21608 ft | 359 kts | 241° |
| 2026-04-30 09:52 | 33.75287 | 130.57098 | 20980 ft | 357 kts | 241° |
| 2026-04-30 09:52 | 33.74166 | 130.54442 | 20365 ft | 355 kts | 241° |
| 2026-04-30 09:53 | 33.73049 | 130.51794 | 19771 ft | 354 kts | 241° |
| 2026-04-30 09:53 | 33.71956 | 130.49204 | 19186 ft | 353 kts | 242° |
| 2026-04-30 09:53 | 33.70843 | 130.46573 | 18595 ft | 353 kts | 242° |
| 2026-04-30 09:53 | 33.69732 | 130.43949 | 17976 ft | 353 kts | 242° |
| 2026-04-30 09:54 | 33.68514 | 130.41427 | 17340 ft | 348 kts | 233° |
| 2026-04-30 09:54 | 33.66876 | 130.39280 | 17035 ft | 354 kts | 224° |
| 2026-04-30 09:54 | 33.64979 | 130.37359 | 16447 ft | 358 kts | 216° |
| 2026-04-30 09:54 | 33.62848 | 130.35894 | 16072 ft | 350 kts | 209° |
| 2026-04-30 09:55 | 33.60686 | 130.34582 | 15677 ft | 345 kts | 208° |
| 2026-04-30 09:55 | 33.58546 | 130.33308 | 15308 ft | 342 kts | 208° |
| 2026-04-30 09:55 | 33.56423 | 130.32038 | 14945 ft | 341 kts | 208° |
| 2026-04-30 09:55 | 33.54311 | 130.30764 | 14586 ft | 340 kts | 208° |
| 2026-04-30 09:56 | 33.52204 | 130.29484 | 14218 ft | 339 kts | 208° |
| 2026-04-30 09:56 | 33.50102 | 130.28201 | 13868 ft | 339 kts | 208° |
| 2026-04-30 09:56 | 33.47998 | 130.26915 | 13479 ft | 339 kts | 208° |
| 2026-04-30 09:56 | 33.45898 | 130.25630 | 13087 ft | 339 kts | 208° |
| 2026-04-30 09:57 | 33.43801 | 130.24346 | 12723 ft | 338 kts | 208° |
| 2026-04-30 09:57 | 33.41708 | 130.23065 | 12348 ft | 338 kts | 208° |
| 2026-04-30 09:57 | 33.39618 | 130.21786 | 11982 ft | 337 kts | 207° |
| 2026-04-30 09:57 | 33.37533 | 130.20511 | 11615 ft | 336 kts | 207° |
| 2026-04-30 09:58 | 33.35455 | 130.19242 | 11276 ft | 333 kts | 207° |
| 2026-04-30 09:58 | 33.33405 | 130.18084 | 10946 ft | 319 kts | 200° |
| 2026-04-30 09:58 | 33.31290 | 130.17624 | 10873 ft | 307 kts | 185° |
| 2026-04-30 09:58 | 33.29220 | 130.17532 | 10857 ft | 291 kts | 184° |
| 2026-04-30 09:59 | 33.25380 | 130.17325 | 10844 ft | 264 kts | 185° |
| 2026-04-30 09:59 | 33.21732 | 130.17096 | 10707 ft | 262 kts | 185° |
| 2026-04-30 10:00 | 33.18100 | 130.16864 | 10060 ft | 261 kts | 185° |
| 2026-04-30 10:00 | 33.16295 | 130.16750 | 9754 ft | 260 kts | 185° |
| 2026-04-30 10:01 | 33.12698 | 130.16521 | 9033 ft | 258 kts | 185° |
| 2026-04-30 10:01 | 33.10905 | 130.16407 | 8687 ft | 258 kts | 184° |
| 2026-04-30 10:01 | 33.09110 | 130.16293 | 8339 ft | 258 kts | 184° |
| 2026-04-30 10:02 | 33.05535 | 130.16065 | 7667 ft | 257 kts | 184° |
| 2026-04-30 10:02 | 33.03748 | 130.15952 | 7328 ft | 257 kts | 184° |
| 2026-04-30 10:02 | 33.01965 | 130.15839 | 7005 ft | 257 kts | 184° |
| 2026-04-30 10:02 | 33.00185 | 130.15726 | 6748 ft | 255 kts | 184° |
| 2026-04-30 10:03 | 32.98416 | 130.15614 | 6528 ft | 256 kts | 184° |
| 2026-04-30 10:03 | 32.96635 | 130.15501 | 6292 ft | 257 kts | 184° |
| 2026-04-30 10:03 | 32.94851 | 130.15388 | 6061 ft | 257 kts | 184° |
| 2026-04-30 10:03 | 32.93065 | 130.15276 | 5819 ft | 257 kts | 184° |
| 2026-04-30 10:04 | 32.91278 | 130.15163 | 5577 ft | 257 kts | 184° |
| 2026-04-30 10:04 | 32.89494 | 130.15051 | 5346 ft | 256 kts | 184° |
| 2026-04-30 10:04 | 32.87718 | 130.14940 | 5107 ft | 255 kts | 184° |
| 2026-04-30 10:04 | 32.85952 | 130.14829 | 4887 ft | 254 kts | 184° |
| 2026-04-30 10:05 | 32.84186 | 130.14720 | 4660 ft | 254 kts | 184° |
| 2026-04-30 10:05 | 32.82432 | 130.14611 | 4446 ft | 250 kts | 184° |
| 2026-04-30 10:05 | 32.80734 | 130.14389 | 4195 ft | 239 kts | 199° |
| 2026-04-30 10:05 | 32.79364 | 130.13409 | 3998 ft | 232 kts | 224° |
| 2026-04-30 10:06 | 32.78270 | 130.12000 | 3794 ft | 226 kts | 230° |
| 2026-04-30 10:06 | 32.77565 | 130.10435 | 3588 ft | 216 kts | 260° |
| 2026-04-30 10:06 | 32.77625 | 130.08694 | 3399 ft | 209 kts | 282° |
| 2026-04-30 10:06 | 32.78029 | 130.07061 | 3242 ft | 202 kts | 287° |
| 2026-04-30 10:07 | 32.78510 | 130.05537 | 3049 ft | 193 kts | 300° |
| 2026-04-30 10:07 | 32.79403 | 130.04414 | 2852 ft | 182 kts | 319° |
| 2026-04-30 10:07 | 32.80046 | 130.03748 | 2759 ft | 180 kts | 318° |
| 2026-04-30 10:07 | 32.80990 | 130.02770 | 2524 ft | 179 kts | 318° |
| 2026-04-30 10:08 | 32.81892 | 130.01818 | 2334 ft | 174 kts | 318° |
| 2026-04-30 10:08 | 32.82813 | 130.00837 | 2093 ft | 176 kts | 318° |
| 2026-04-30 10:08 | 32.83724 | 129.99865 | 1848 ft | 175 kts | 319° |
| 2026-04-30 10:08 | 32.84598 | 129.98931 | 1626 ft | 161 kts | 319° |
| 2026-04-30 10:09 | 32.85382 | 129.98092 | 1411 ft | 146 kts | 319° |
| 2026-04-30 10:09 | 32.86116 | 129.97308 | 1214 ft | 141 kts | 319° |
| 2026-04-30 10:09 | 32.86843 | 129.96531 | 1024 ft | 139 kts | 319° |
| 2026-04-30 10:09 | 32.87557 | 129.95767 | 844 ft | 136 kts | 319° |
| 2026-04-30 10:10 | 32.88252 | 129.95024 | 673 ft | 134 kts | 319° |
| 2026-04-30 10:10 | 32.88920 | 129.94308 | 470 ft | 125 kts | 319° |
| 2026-04-30 10:10 | 32.89560 | 129.93619 | 356 ft | 123 kts | 320° |
| 2026-04-30 10:10 | 32.90203 | 129.92934 | 219 ft | 126 kts | 319° |
| 2026-04-30 10:11 | 32.90869 | 129.92226 | 52 ft | 130 kts | 318° |
| 2026-04-30 10:11 | 32.91507 | 129.91544 | 19 ft | 112 kts | 320° |
| 2026-04-30 10:11 | 32.91954 | 129.91072 | 22 ft | 59 kts | 317° |
| 2026-04-30 10:11 | 32.92131 | 129.90881 | 22 ft | 20 kts | 318° |
| 2026-04-30 10:12 | 32.92236 | 129.90770 | 25 ft | 20 kts | 317° |
| 2026-04-30 10:12 | 32.92327 | 129.90678 | 26 ft | 12 kts | 330° |
| 2026-04-30 10:12 | 32.92401 | 129.90697 | 22 ft | 12 kts | 39° |
| 2026-04-30 10:12 | 32.92445 | 129.90775 | 24 ft | 11 kts | 78° |
| 2026-04-30 10:13 | 32.92411 | 129.90855 | 21 ft | 11 kts | 135° |
| 2026-04-30 10:13 | 32.92353 | 129.90920 | 22 ft | 11 kts | 137° |
| 2026-04-30 10:13 | 32.92294 | 129.90982 | 25 ft | 11 kts | 140° |
| 2026-04-30 10:13 | 32.92233 | 129.91048 | 24 ft | 15 kts | 138° |
| 2026-04-30 10:14 | 32.92140 | 129.91145 | 22 ft | 18 kts | 139° |
| 2026-04-30 10:14 | 32.92045 | 129.91246 | 23 ft | 19 kts | 138° |
| 2026-04-30 10:14 | 32.91854 | 129.91451 | 25 ft | 19 kts | 138° |
| 2026-04-30 10:15 | 32.91758 | 129.91555 | 24 ft | 19 kts | 137° |
| 2026-04-30 10:15 | 32.91667 | 129.91650 | 23 ft | 14 kts | 139° |
| 2026-04-30 10:15 | 32.91606 | 129.91716 | 23 ft | 11 kts | 137° |
| 2026-04-30 10:15 | 32.91544 | 129.91782 | 22 ft | 13 kts | 138° |
| 2026-04-30 10:16 | 32.91480 | 129.91851 | 24 ft | 9 kts | 138° |
| 2026-04-30 10:16 | 32.91445 | 129.91887 | 26 ft | 6 kts | 138° |
| 2026-04-30 10:16 | 32.91417 | 129.91918 | 25 ft | 7 kts | 137° |
| 2026-04-30 10:17 | 32.91334 | 129.92007 | 22 ft | 9 kts | 138° |
| 2026-04-30 10:17 | 32.91300 | 129.92047 | 25 ft | 6 kts | 121° |
| 2026-04-30 10:17 | 32.91304 | 129.92078 | 25 ft | 6 kts | 70° |
| 2026-04-30 10:18 | 32.91327 | 129.92119 | 24 ft | 6 kts | 51° |
| 2026-04-30 10:18 | 32.91354 | 129.92156 | 25 ft | 5 kts | 49° |
| 2026-04-30 10:18 | 32.91369 | 129.92176 | 25 ft | 1 kts | 48° |
| 2026-04-30 10:19 | 32.91371 | 129.92179 | 25 ft | 0 kts | 48° |
| 2026-04-30 10:24 | 32.91371 | 129.92178 | 23 ft | 0 kts | 48° |